Time;durP1;ratioP1;P1;durP2;ratioP2;P2;SDS_P1;SDS_P2;PMS_P1;PMS_P2;Temp;Humidity;BMP_temperature;BMP_pressure;BME280_temperature;BME280_humidity;BME280_pressure;Samples;Min_cycle;Max_cycle;Signal;HPM_P1;HPM_P2
2022/05/13 00:02:15;;;;;;;6.70;6.40;;;;;;;17.24;76.22;100720.31;5031673;28;20036;-61
2022/05/13 00:04:41;;;;;;;6.45;6.15;;;;;;;17.39;75.52;100715.47;5031323;28;20017;-60
2022/05/13 00:07:08;;;;;;;6.50;6.20;;;;;;;17.44;75.35;100721.03;5029459;28;20095;-62
2022/05/13 00:12:18;;;;;;;6.50;6.20;;;;;;;17.39;74.86;100727.03;5031436;28;20071;-62
2022/05/13 00:14:45;;;;;;;6.70;6.40;;;;;;;17.47;74.39;100717.09;5030882;28;20119;-61
2022/05/13 00:17:11;;;;;;;6.55;6.25;;;;;;;17.39;75.12;100727.03;5017995;28;20156;-63
2022/05/13 00:19:38;;;;;;;6.40;6.10;;;;;;;17.44;75.28;100722.91;5031383;28;20036;-62
2022/05/13 00:22:04;;;;;;;6.45;6.15;;;;;;;17.28;75.92;100718.84;5011938;28;20144;-62
2022/05/13 00:24:30;;;;;;;6.50;6.20;;;;;;;17.23;76.60;100719.50;5024731;28;20028;-63
2022/05/13 00:26:55;;;;;;;6.88;6.57;;;;;;;17.17;76.71;100719.50;5031218;28;20030;-61
2022/05/13 00:29:21;;;;;;;6.30;6.07;;;;;;;17.25;75.64;100711.22;5031051;28;20071;-62
2022/05/13 00:31:47;;;;;;;6.43;6.13;;;;;;;17.30;75.20;100722.13;5043218;28;20120;-62
2022/05/13 00:34:13;;;;;;;6.43;6.13;;;;;;;17.10;77.01;100722.22;5031690;28;20096;-62
2022/05/13 00:36:40;;;;;;;6.60;6.30;;;;;;;17.10;76.79;100719.53;5031542;28;20083;-62
2022/05/13 00:39:07;;;;;;;6.45;6.15;;;;;;;17.05;77.15;100722.88;5031295;28;20041;-62
2022/05/13 00:41:34;;;;;;;6.60;6.30;;;;;;;17.06;76.60;100721.00;5021052;28;20034;-62
2022/05/13 00:44:00;;;;;;;6.60;6.30;;;;;;;17.04;77.63;100723.06;5018600;28;20452;-62
2022/05/13 00:46:28;;;;;;;6.65;6.35;;;;;;;17.08;77.50;100724.28;5032750;28;20029;-61
2022/05/13 00:48:54;;;;;;;6.47;6.18;;;;;;;17.06;77.41;100727.19;5034076;28;20038;-61
2022/05/13 00:51:26;;;;;;;6.47;6.18;;;;;;;17.03;77.56;100721.41;5034932;28;20035;-62
2022/05/13 00:53:52;;;;;;;6.25;5.97;;;;;;;17.04;77.82;100723.06;5034565;28;20063;-61
2022/05/13 00:56:19;;;;;;;6.55;6.25;;;;;;;17.02;76.81;100730.50;5034110;28;20480;-61
2022/05/13 00:58:47;;;;;;;6.50;6.20;;;;;;;17.03;77.44;100721.41;5033893;28;20049;-61
2022/05/13 01:01:14;;;;;;;6.10;5.90;;;;;;;17.00;76.42;100713.81;5034811;28;20531;-62
2022/05/13 01:03:40;;;;;;;6.40;6.10;;;;;;;17.09;75.96;100720.59;5033509;28;20030;-62
2022/05/13 01:06:12;;;;;;;6.32;6.05;;;;;;;17.05;77.14;100724.75;5035565;28;20029;-63
2022/05/13 01:08:39;;;;;;;6.40;6.10;;;;;;;17.00;76.39;100720.00;5033566;28;20033;-62
2022/05/13 01:11:09;;;;;;;6.40;6.10;;;;;;;16.97;77.25;100728.47;5034356;28;20029;-62
2022/05/13 01:13:37;;;;;;;6.50;6.20;;;;;;;16.95;77.23;100725.16;5034034;28;20037;-63
2022/05/13 01:16:03;;;;;;;6.50;6.20;;;;;;;16.86;77.64;100734.47;5034607;28;20044;-62
2022/05/13 01:18:34;;;;;;;7.00;6.70;;;;;;;16.74;78.69;100736.16;5033889;28;20103;-62
2022/05/13 01:21:01;;;;;;;6.60;6.30;;;;;;;16.77;78.10;100754.50;5029871;28;20056;-62
2022/05/13 01:23:30;;;;;;;6.40;6.10;;;;;;;16.69;78.34;100755.56;5030590;28;20374;-63
2022/05/13 01:26:05;;;;;;;6.32;6.05;;;;;;;16.68;78.58;100753.06;5034027;28;20022;-62
2022/05/13 01:28:37;;;;;;;6.70;6.40;;;;;;;16.61;79.09;100752.25;5030775;28;20072;-62
2022/05/13 01:31:07;;;;;;;6.40;6.10;;;;;;;16.67;78.85;100751.38;5024775;28;20064;-61
2022/05/13 01:33:33;;;;;;;6.50;6.20;;;;;;;16.69;78.37;100755.56;5033641;28;20037;-61
2022/05/13 01:36:01;;;;;;;6.53;6.22;;;;;;;16.63;79.03;100745.63;5033237;28;20030;-62
2022/05/13 01:38:30;;;;;;;6.63;6.32;;;;;;;16.62;79.27;100752.03;5033278;28;20034;-61
2022/05/13 01:40:56;;;;;;;6.40;6.10;;;;;;;16.60;79.49;100756.78;5033489;28;20021;-62
2022/05/13 01:43:22;;;;;;;6.50;6.20;;;;;;;16.57;79.43;100760.69;5033672;28;20057;-61
2022/05/13 01:45:48;;;;;;;6.55;6.25;;;;;;;16.55;79.79;100759.25;5033743;28;20396;-62
2022/05/13 01:48:13;;;;;;;6.40;6.10;;;;;;;16.49;80.21;100763.56;5014857;28;20022;-61
2022/05/13 01:50:39;;;;;;;6.70;6.40;;;;;;;16.40;81.35;100762.16;5032225;28;20082;-62
2022/05/13 01:53:06;;;;;;;6.70;6.40;;;;;;;16.30;82.70;100762.56;5032611;28;20040;-62
2022/05/13 01:55:32;;;;;;;6.63;6.32;;;;;;;16.17;83.40;100759.06;5039001;28;20024;-61
2022/05/13 01:57:58;;;;;;;6.50;6.20;;;;;;;16.25;82.12;100754.31;5041361;28;20029;-62
2022/05/13 02:00:24;;;;;;;6.40;6.10;;;;;;;16.32;81.55;100750.81;5032054;28;20028;-61
2022/05/13 02:05:34;;;;;;;6.15;5.95;;;;;;;16.23;81.46;100759.06;5037627;28;20028;-62
2022/05/13 02:08:01;;;;;;;6.55;6.25;;;;;;;16.29;81.27;100763.56;5039827;28;20021;-62
2022/05/13 02:10:28;;;;;;;6.68;6.38;;;;;;;16.24;81.69;100768.75;5032207;28;20029;-61
2022/05/13 02:12:53;;;;;;;6.72;6.43;;;;;;;16.24;81.86;100765.25;5030759;28;20395;-62
2022/05/13 02:15:19;;;;;;;6.70;6.40;;;;;;;16.27;81.91;100765.63;5032800;28;20108;-63
2022/05/13 02:17:44;;;;;;;6.60;6.30;;;;;;;16.27;81.93;100762.97;5032700;28;20435;-62
2022/05/13 02:20:11;;;;;;;6.60;6.30;;;;;;;16.25;81.93;100761.53;5020830;28;20056;-62
2022/05/13 02:22:37;;;;;;;6.60;6.30;;;;;;;16.25;82.28;100767.72;5033348;28;20388;-61
2022/05/13 02:25:03;;;;;;;6.57;6.28;;;;;;;16.22;82.17;100767.28;5032531;28;20040;-60
2022/05/13 02:27:29;;;;;;;6.50;6.20;;;;;;;16.24;82.79;100770.59;5032736;28;20037;-61
2022/05/13 02:29:54;;;;;;;6.45;6.15;;;;;;;16.22;82.73;100770.78;5032588;28;20391;-62
2022/05/13 02:32:20;;;;;;;6.45;6.15;;;;;;;16.24;82.61;100763.38;5032663;28;20029;-62
2022/05/13 02:34:46;;;;;;;6.47;6.18;;;;;;;16.19;83.50;100773.88;5032399;28;20079;-62
2022/05/13 02:37:12;;;;;;;6.70;6.40;;;;;;;16.11;84.02;100773.25;5032585;28;20060;-62
2022/05/13 02:39:37;;;;;;;6.30;6.00;;;;;;;16.08;84.42;100768.31;5032555;28;20037;-63
2022/05/13 02:42:03;;;;;;;6.25;6.00;;;;;;;16.08;85.07;100774.47;5027607;28;20477;-62
2022/05/13 02:44:29;;;;;;;6.47;6.18;;;;;;;16.06;85.56;100779.22;5032280;28;20045;-62
2022/05/13 02:46:54;;;;;;;6.72;6.43;;;;;;;16.03;85.62;100780.47;5032036;28;20056;-62
2022/05/13 02:49:21;;;;;;;6.57;6.28;;;;;;;16.08;85.43;100779.00;5029483;28;20029;-62
2022/05/13 02:51:48;;;;;;;6.90;6.60;;;;;;;16.05;85.27;100772.22;5012770;28;20107;-62
2022/05/13 02:54:13;;;;;;;6.50;6.20;;;;;;;15.99;86.05;100778.38;5032405;28;20036;-62
2022/05/13 02:56:39;;;;;;;6.18;5.97;;;;;;;15.97;86.52;100783.94;5032280;28;20587;-60
2022/05/13 02:59:05;;;;;;;6.47;6.18;;;;;;;16.08;85.53;100790.53;5038574;28;20384;-62
2022/05/13 03:01:32;;;;;;;6.47;6.18;;;;;;;16.11;85.76;100787.47;5031928;28;20110;-61
2022/05/13 03:03:58;;;;;;;6.45;6.15;;;;;;;16.19;85.55;100794.47;5030821;28;20054;-62
2022/05/13 03:06:24;;;;;;;6.45;6.15;;;;;;;16.09;85.29;100794.06;5030757;28;20063;-62
2022/05/13 03:08:50;;;;;;;6.40;6.10;;;;;;;16.11;85.34;100790.16;5031737;28;20069;-62
2022/05/13 03:11:16;;;;;;;6.10;5.90;;;;;;;16.15;84.73;100788.69;5032123;28;20026;-61
2022/05/13 03:13:42;;;;;;;6.43;6.13;;;;;;;16.22;83.95;100789.53;5030573;28;20033;-62
2022/05/13 03:16:11;;;;;;;6.50;6.20;;;;;;;16.28;83.24;100796.72;5031163;28;20032;-62
2022/05/13 03:18:39;;;;;;;6.40;6.10;;;;;;;16.34;83.09;100800.44;5031929;28;20041;-61
2022/05/13 03:21:04;;;;;;;6.90;6.60;;;;;;;16.29;83.56;100802.91;5032028;28;20079;-62
2022/05/13 03:23:30;;;;;;;6.43;6.13;;;;;;;16.48;82.71;100806.63;5031651;28;20420;-61
2022/05/13 03:25:56;;;;;;;6.40;6.10;;;;;;;16.67;81.24;100805.81;5025387;28;20032;-60
2022/05/13 03:28:22;;;;;;;6.60;6.30;;;;;;;16.57;82.19;100808.06;5025771;28;20021;-63
2022/05/13 03:30:50;;;;;;;6.20;6.00;;;;;;;16.53;82.86;100815.69;5027903;28;20036;-62
2022/05/13 03:33:17;;;;;;;6.80;6.50;;;;;;;16.44;83.16;100813.41;5027971;28;20029;-61
2022/05/13 03:35:43;;;;;;;6.32;6.03;;;;;;;16.73;81.34;100818.38;5026492;28;20192;-62
2022/05/13 03:38:08;;;;;;;6.50;6.20;;;;;;;16.67;81.42;100819.19;5019175;28;20025;-63
2022/05/13 03:40:35;;;;;;;6.80;6.50;;;;;;;16.80;81.16;100819.19;5031557;28;20075;-61
2022/05/13 03:43:02;;;;;;;6.80;6.50;;;;;;;18.84;71.82;100829.09;5031103;28;20095;-63
2022/05/13 03:45:32;;;;;;;7.25;6.95;;;;;;;21.44;60.23;100835.84;5030614;28;20397;-63
2022/05/13 03:47:59;;;;;;;6.80;6.50;;;;;;;22.16;56.53;100846.97;5030544;28;20034;-64
2022/05/13 03:50:25;;;;;;;6.85;6.55;;;;;;;22.53;55.09;100843.78;5031092;28;20109;-62
2022/05/13 03:52:51;;;;;;;6.72;6.43;;;;;;;22.46;54.78;100856.66;5031090;28;20555;-63
2022/05/13 03:55:16;;;;;;;6.93;6.63;;;;;;;24.49;49.43;100856.56;5030261;28;20060;-62
2022/05/13 03:57:41;;;;;;;6.70;6.40;;;;;;;25.39;46.83;100862.03;5030870;28;20025;-62
2022/05/13 04:00:09;;;;;;;7.18;6.88;;;;;;;25.93;44.18;100869.03;5017094;28;20111;-64
2022/05/13 04:02:35;;;;;;;6.70;6.40;;;;;;;26.27;43.67;100866.63;5032586;28;20107;-62
2022/05/13 04:10:29;;;;;;;7.15;6.85;;;;;;;27.94;39.25;100870.13;5020620;28;20036;-63
2022/05/13 04:18:22;;;;;;;6.88;6.57;;;;;;;29.33;36.13;100876.84;5012087;28;20164;-62
2022/05/13 04:20:48;;;;;;;7.00;6.70;;;;;;;30.08;34.78;100884.34;5019397;28;20112;-63
2022/05/13 04:23:16;;;;;;;6.97;6.68;;;;;;;30.18;34.17;100876.00;5036402;28;20395;-63
2022/05/13 04:25:41;;;;;;;6.93;6.63;;;;;;;30.71;33.41;100876.53;5038201;28;20079;-63
2022/05/13 04:28:07;;;;;;;6.97;6.68;;;;;;;31.52;32.40;100879.66;5034811;28;20037;-62
2022/05/13 04:30:32;;;;;;;7.15;6.85;;;;;;;30.76;33.65;100881.91;5034308;28;20030;-62
2022/05/13 04:32:58;;;;;;;7.00;6.70;;;;;;;30.86;32.82;100885.59;5034492;28;20052;-63
2022/05/13 04:35:23;;;;;;;7.20;6.90;;;;;;;31.61;31.48;100872.31;5034498;28;20037;-62
2022/05/13 04:37:49;;;;;;;7.00;6.70;;;;;;;27.77;37.98;100870.50;5025515;28;20017;-62
2022/05/13 04:40:14;;;;;;;6.90;6.60;;;;;;;29.44;35.73;100873.69;5033068;28;20053;-62
2022/05/13 04:42:49;;;;;;;7.00;6.70;;;;;;;31.41;33.06;100877.41;5030971;28;20120;-63
2022/05/13 04:45:16;;;;;;;7.10;6.80;;;;;;;31.29;32.88;100875.19;5034350;28;20108;-62
2022/05/13 04:50:26;;;;;;;7.00;6.70;;;;;;;32.01;31.50;100880.78;5033983;28;20039;-63
2022/05/13 04:52:51;;;;;;;6.85;6.55;;;;;;;30.55;33.20;100875.13;5039545;28;20025;-61
2022/05/13 04:55:17;;;;;;;6.88;6.57;;;;;;;30.03;34.36;100881.66;5034407;28;20033;-62
2022/05/13 04:57:42;;;;;;;7.00;6.70;;;;;;;31.73;32.42;100876.44;5033781;28;20059;-61
2022/05/13 05:00:08;;;;;;;7.28;6.97;;;;;;;31.73;31.43;100879.19;5030933;28;20029;-62
2022/05/13 05:02:34;;;;;;;7.00;6.70;;;;;;;31.87;31.20;100883.56;5033248;28;20496;-62
2022/05/13 05:05:00;;;;;;;6.90;6.60;;;;;;;31.74;32.17;100875.34;5029508;28;20040;-61
2022/05/13 05:07:26;;;;;;;7.18;6.88;;;;;;;32.50;30.77;100883.75;5037271;28;20037;-62
2022/05/13 05:09:51;;;;;;;7.10;6.80;;;;;;;33.45;29.18;100892.50;5033838;28;20109;-63
2022/05/13 05:12:17;;;;;;;6.75;6.45;;;;;;;33.88;28.60;100889.03;5034055;28;20037;-62
2022/05/13 05:14:42;;;;;;;7.13;6.82;;;;;;;33.84;28.37;100893.53;5033999;28;20032;-61
2022/05/13 05:17:08;;;;;;;7.10;6.80;;;;;;;32.78;29.78;100892.66;5025786;28;20030;-63
2022/05/13 05:19:34;;;;;;;7.07;6.78;;;;;;;33.05;29.25;100902.66;5034219;28;20029;-62
2022/05/13 05:21:59;;;;;;;7.10;6.80;;;;;;;32.02;30.52;100896.09;5033925;28;20322;-61
2022/05/13 05:24:25;;;;;;;6.90;6.60;;;;;;;33.52;28.43;100901.09;5024870;28;20034;-63
2022/05/13 05:26:50;;;;;;;6.70;6.40;;;;;;;31.75;31.34;100899.72;5030399;28;20017;-62
2022/05/13 05:29:16;;;;;;;7.00;6.70;;;;;;;33.10;29.05;100902.53;5033973;28;20091;-62
2022/05/13 05:31:42;;;;;;;7.20;6.90;;;;;;;34.05;28.08;100909.13;5032675;28;20660;-62
2022/05/13 05:34:08;;;;;;;7.25;6.95;;;;;;;34.96;26.97;100915.53;5036228;28;20024;-62
2022/05/13 05:36:34;;;;;;;7.10;6.80;;;;;;;34.42;27.26;100906.06;5033591;28;20109;-62
2022/05/13 05:39:00;;;;;;;6.90;6.60;;;;;;;33.19;28.81;100908.88;5033425;28;20028;-63
2022/05/13 05:41:26;;;;;;;7.00;6.70;;;;;;;33.98;27.58;100908.00;5033570;28;20013;-61
2022/05/13 05:43:51;;;;;;;6.97;6.68;;;;;;;35.04;26.62;100920.22;5033452;28;20037;-61
2022/05/13 05:46:17;;;;;;;7.07;6.78;;;;;;;34.87;26.74;100918.28;5033455;28;20492;-61
2022/05/13 05:48:43;;;;;;;7.13;6.82;;;;;;;36.05;25.13;100911.22;5036798;28;20025;-62
2022/05/13 05:51:08;;;;;;;7.10;6.80;;;;;;;36.00;25.68;100914.22;5032552;28;20438;-62
2022/05/13 05:59:03;;;;;;;7.30;7.00;;;;;;;37.04;24.30;100914.03;5033623;28;20045;-62
2022/05/13 06:01:29;;;;;;;7.22;6.93;;;;;;;35.83;25.50;100907.63;5029407;28;20013;-62
2022/05/13 06:03:54;;;;;;;7.40;7.10;;;;;;;37.13;24.56;100911.16;5036918;28;20086;-63
2022/05/13 06:06:20;;;;;;;7.35;7.05;;;;;;;37.31;24.30;100907.00;5033117;28;20032;-62
2022/05/13 06:08:46;;;;;;;7.38;7.07;;;;;;;38.02;23.48;100912.00;5021000;28;20117;-63
2022/05/13 06:11:11;;;;;;;7.40;7.10;;;;;;;37.74;23.81;100911.13;5029744;28;20036;-63
2022/05/13 06:13:37;;;;;;;7.50;7.20;;;;;;;38.02;23.08;100905.66;5030851;28;20460;-63
2022/05/13 06:16:04;;;;;;;7.28;6.97;;;;;;;37.18;23.89;100914.50;5031605;28;20037;-62
2022/05/13 06:18:29;;;;;;;6.82;6.53;;;;;;;34.59;26.78;100914.28;5032795;28;20018;-62
2022/05/13 06:20:55;;;;;;;6.82;6.53;;;;;;;33.24;28.90;100908.75;5032958;28;20512;-62
2022/05/13 06:23:21;;;;;;;7.10;6.80;;;;;;;35.77;25.80;100905.41;5031348;28;20022;-62
2022/05/13 06:25:47;;;;;;;7.20;6.90;;;;;;;36.37;25.22;100915.19;5031904;28;20393;-62
2022/05/13 06:28:12;;;;;;;6.80;6.50;;;;;;;34.22;27.85;100913.81;5026392;28;20033;-66
2022/05/13 06:30:38;;;;;;;7.20;6.90;;;;;;;35.05;27.27;100927.34;5036736;28;20033;-65
2022/05/13 06:33:05;;;;;;;7.05;6.75;;;;;;;36.05;25.41;100914.00;5032811;28;20041;-65
2022/05/13 06:35:33;;;;;;;7.10;6.80;;;;;;;36.76;24.61;100914.63;5029256;28;20044;-63
2022/05/13 06:37:59;;;;;;;7.30;7.00;;;;;;;35.58;26.15;100916.91;5019236;28;20030;-62
2022/05/13 06:40:25;;;;;;;7.07;6.78;;;;;;;36.29;25.01;100919.66;5029337;28;20027;-63
2022/05/13 06:42:51;;;;;;;7.07;6.78;;;;;;;34.06;27.93;100923.69;5027547;28;20041;-65
2022/05/13 06:45:18;;;;;;;7.07;6.78;;;;;;;35.51;26.32;100924.91;5032545;28;20025;-64
2022/05/13 06:47:44;;;;;;;7.10;6.80;;;;;;;36.65;24.94;100919.00;5032120;28;20468;-63
2022/05/13 06:50:16;;;;;;;7.10;6.80;;;;;;;37.26;24.34;100921.06;5029190;28;20030;-63
2022/05/13 06:52:42;;;;;;;7.03;6.72;;;;;;;37.08;24.05;100915.75;5031824;28;20034;-63
2022/05/13 06:55:09;;;;;;;7.20;6.90;;;;;;;35.80;25.69;100908.31;5028083;28;20025;-63
2022/05/13 06:57:34;;;;;;;7.10;6.80;;;;;;;36.61;24.36;100908.97;5029517;28;20020;-65
2022/05/13 07:00:00;;;;;;;6.93;6.63;;;;;;;38.50;22.39;100912.19;5022991;28;20026;-65
2022/05/13 07:02:27;;;;;;;7.30;7.00;;;;;;;37.18;24.22;100908.97;5039097;28;20079;-66
2022/05/13 07:04:52;;;;;;;7.40;7.10;;;;;;;36.18;25.60;100910.16;5030016;28;20100;-65
2022/05/13 07:07:18;;;;;;;7.10;6.80;;;;;;;38.45;22.64;100904.13;5027339;28;20025;-64
2022/05/13 07:09:43;;;;;;;7.05;6.75;;;;;;;37.71;23.49;100903.53;5031374;28;20113;-64
2022/05/13 07:12:10;;;;;;;7.00;6.70;;;;;;;36.72;24.52;100905.41;5031669;28;20064;-63
2022/05/13 07:14:36;;;;;;;7.10;6.80;;;;;;;38.10;23.30;100899.16;5032112;28;20428;-64
2022/05/13 07:17:04;;;;;;;7.13;6.82;;;;;;;38.90;22.06;100904.56;5031668;28;20021;-63
2022/05/13 07:19:29;;;;;;;7.18;6.88;;;;;;;39.23;22.36;100911.75;5031219;28;20025;-63
2022/05/13 07:21:55;;;;;;;7.35;7.05;;;;;;;38.37;23.40;100906.72;5027724;28;20025;-65
2022/05/13 07:24:20;;;;;;;7.28;6.97;;;;;;;38.91;22.53;100910.91;5030112;28;20417;-65
2022/05/13 07:26:46;;;;;;;7.35;7.05;;;;;;;38.13;22.88;100904.03;5030033;28;20120;-63
2022/05/13 07:29:12;;;;;;;7.35;7.05;;;;;;;36.74;24.92;100899.56;5031038;28;20473;-66
2022/05/13 07:31:39;;;;;;;7.25;6.95;;;;;;;38.98;22.26;100917.47;5031565;28;20029;-65
2022/05/13 07:34:05;;;;;;;7.13;6.82;;;;;;;36.92;24.39;100900.19;5023708;28;20404;-65
2022/05/13 07:36:32;;;;;;;7.25;6.95;;;;;;;38.02;23.01;100900.94;5030755;28;20029;-63
2022/05/13 07:41:41;;;;;;;7.00;6.70;;;;;;;39.64;21.58;100910.34;5026245;28;20062;-66
2022/05/13 07:44:07;;;;;;;6.93;6.63;;;;;;;39.02;22.39;100913.97;5030179;28;20068;-64
2022/05/13 07:46:32;;;;;;;7.30;7.00;;;;;;;39.33;22.17;100904.84;5030022;28;20523;-63
2022/05/13 07:48:58;;;;;;;7.05;6.75;;;;;;;38.47;23.38;100904.56;5031151;28;20041;-63
2022/05/13 07:51:26;;;;;;;6.88;6.57;;;;;;;37.75;23.89;100894.16;5030535;28;20037;-63
2022/05/13 07:53:52;;;;;;;7.10;6.80;;;;;;;36.70;25.20;100887.56;5029938;28;20025;-64
2022/05/13 07:56:17;;;;;;;7.22;6.93;;;;;;;35.15;26.76;100890.31;5034220;28;20037;-64
2022/05/13 07:58:42;;;;;;;6.95;6.65;;;;;;;36.23;25.69;100882.31;5035145;28;20036;-63
2022/05/13 08:01:08;;;;;;;7.18;6.88;;;;;;;35.10;26.71;100882.22;5035415;28;20028;-63
2022/05/13 08:03:33;;;;;;;7.00;6.70;;;;;;;35.87;25.90;100878.22;5034955;28;20408;-61
2022/05/13 08:06:03;;;;;;;7.10;6.80;;;;;;;34.86;26.83;100880.84;5022751;28;20120;-63
2022/05/13 08:08:36;;;;;;;6.97;6.68;;;;;;;34.69;27.14;100882.84;5038281;28;20031;-64
2022/05/13 08:11:03;;;;;;;;;;;;;;;34.93;27.11;100880.34;5035025;28;20021;-64
2022/05/13 08:13:31;;;;;;;6.72;6.43;;;;;;;33.94;28.76;100880.31;5026196;28;20293;-65
2022/05/13 08:16:00;;;;;;;7.10;6.80;;;;;;;35.01;27.57;100882.25;5030566;28;20021;-64
2022/05/13 08:18:26;;;;;;;6.80;6.50;;;;;;;34.22;28.12;100869.75;5035078;28;20029;-64
2022/05/13 08:20:52;;;;;;;7.00;6.70;;;;;;;33.66;28.71;100871.50;5021699;28;20356;-64
2022/05/13 08:23:19;;;;;;;7.00;6.70;;;;;;;34.19;27.66;100867.66;5034029;28;20108;-65
2022/05/13 08:25:44;;;;;;;6.80;6.50;;;;;;;33.33;28.72;100864.75;5034442;28;20029;-65
2022/05/13 08:28:11;;;;;;;6.78;6.47;;;;;;;33.23;29.09;100858.44;5037658;28;20083;-64
2022/05/13 08:30:38;;;;;;;6.72;6.43;;;;;;;32.19;30.56;100854.28;5032832;28;20033;-63
2022/05/13 08:33:08;;;;;;;6.82;6.53;;;;;;;33.86;28.45;100856.31;5033031;28;20040;-66
2022/05/13 08:35:48;;;;;;;6.90;6.60;;;;;;;34.34;27.87;100860.84;5033966;28;20025;-64
2022/05/13 08:38:16;;;;;;;7.00;6.70;;;;;;;32.10;30.56;100851.47;5031535;28;20025;-65
2022/05/13 08:41:01;;;;;;;6.88;6.57;;;;;;;33.19;29.43;100848.38;5025219;28;20068;-65
2022/05/13 08:43:34;;;;;;;6.70;6.40;;;;;;;33.50;28.72;100845.59;5032608;28;20049;-66
2022/05/13 08:46:12;;;;;;;6.75;6.45;;;;;;;33.78;29.20;100852.41;5027729;28;20033;-65
2022/05/13 08:49:16;;;;;;;6.88;6.57;;;;;;;32.69;29.12;100840.41;5054529;28;20025;-64
2022/05/13 08:52:00;;;;;;;6.60;6.30;;;;;;;32.93;29.10;100843.63;5032512;28;20366;-63
2022/05/13 08:54:31;;;;;;;6.82;6.53;;;;;;;34.28;27.86;100840.91;5029463;28;20022;-65
2022/05/13 08:57:00;;;;;;;6.80;6.50;;;;;;;33.27;28.66;100839.34;5031425;28;20053;-64
2022/05/13 08:59:52;;;;;;;6.90;6.60;;;;;;;27.74;35.45;100838.31;5035841;28;20070;-64
2022/05/13 09:02:33;;;;;;;6.85;6.55;;;;;;;28.18;36.01;100826.56;5035501;28;20024;-65
2022/05/13 09:05:27;;;;;;;6.78;6.47;;;;;;;31.24;32.14;100824.03;5025440;28;20019;-63
2022/05/13 09:07:53;;;;;;;;;;;;;;;32.40;30.24;100821.69;5031571;28;20048;-64
2022/05/13 09:10:19;;;;;;;7.00;6.70;;;;;;;31.30;31.70;100822.81;5034029;28;19934;-64
2022/05/13 09:13:14;;;;;;;6.80;6.50;;;;;;;31.82;30.96;100823.31;5028294;28;20036;-64
2022/05/13 09:15:52;;;;;;;7.00;6.70;;;;;;;32.78;30.22;100826.72;5034051;28;20092;-63
2022/05/13 09:18:31;;;;;;;7.13;6.82;;;;;;;31.83;30.69;100813.16;5028996;28;20034;-65
2022/05/13 09:21:09;;;;;;;6.88;6.57;;;;;;;32.02;30.63;100816.53;5024780;28;20070;-65
2022/05/13 09:23:35;;;;;;;7.00;6.70;;;;;;;31.16;32.23;100816.50;5031648;28;20029;-64
2022/05/13 09:26:22;;;;;;;6.65;6.35;;;;;;;31.37;31.15;100814.16;5033950;28;20025;-66
2022/05/13 09:29:07;;;;;;;6.82;6.53;;;;;;;31.61;30.66;100806.50;5033730;28;20095;-65
2022/05/13 09:31:37;;;;;;;6.82;6.53;;;;;;;31.12;31.53;100799.03;5033194;28;20033;-65
2022/05/13 09:34:04;;;;;;;6.85;6.55;;;;;;;31.56;31.61;100792.88;5032223;28;20557;-65
2022/05/13 09:36:32;;;;;;;7.00;6.70;;;;;;;30.42;33.43;100786.38;5033396;28;20433;-65
2022/05/13 09:39:01;;;;;;;6.70;6.40;;;;;;;30.91;32.33;100787.66;5022304;28;20088;-64
2022/05/13 09:41:31;;;;;;;6.90;6.60;;;;;;;30.38;33.09;100768.13;5033185;28;20425;-64
2022/05/13 09:44:17;;;;;;;6.70;6.40;;;;;;;30.29;33.29;100776.22;5031609;28;20445;-64
2022/05/13 09:46:49;;;;;;;7.00;6.70;;;;;;;30.26;33.13;100769.44;5030369;28;20025;-66
2022/05/13 09:49:18;;;;;;;7.07;6.78;;;;;;;30.46;33.08;100770.16;5029381;28;20049;-65
2022/05/13 09:52:00;;;;;;;6.78;6.47;;;;;;;30.33;32.98;100768.19;5040328;28;20033;-65
2022/05/13 09:54:34;;;;;;;6.70;6.40;;;;;;;30.24;32.12;100765.34;5030875;28;20053;-65
2022/05/13 09:57:07;;;;;;;6.68;6.38;;;;;;;30.90;32.36;100769.59;5032972;28;20029;-65
2022/05/13 09:59:40;;;;;;;6.90;6.60;;;;;;;30.21;32.79;100763.22;5026661;28;20508;-65
2022/05/13 10:02:34;;;;;;;7.00;6.70;;;;;;;30.21;33.06;100766.75;5029719;28;20439;-65
2022/05/13 10:05:20;;;;;;;6.70;6.40;;;;;;;30.72;32.03;100754.91;5016656;28;20037;-64
2022/05/13 10:07:55;;;;;;;6.68;6.38;;;;;;;30.31;33.16;100746.59;5031267;28;20038;-64
2022/05/13 10:16:17;;;;;;;6.65;6.35;;;;;;;30.23;33.36;100744.56;5032864;28;20040;-64
2022/05/13 10:18:54;;;;;;;6.80;6.50;;;;;;;30.09;33.88;100749.19;5031462;28;20079;-64
2022/05/13 10:21:27;;;;;;;6.63;6.32;;;;;;;29.43;34.64;100743.59;5031319;28;20040;-63
2022/05/13 10:24:12;;;;;;;6.60;6.30;;;;;;;29.16;34.93;100754.38;5032291;28;20033;-64
2022/05/13 10:26:41;;;;;;;6.90;6.60;;;;;;;29.64;33.85;100746.06;5030433;28;20524;-64
2022/05/13 10:29:15;;;;;;;7.00;6.70;;;;;;;29.07;35.92;100740.53;5027368;28;20484;-61
2022/05/13 10:31:44;;;;;;;6.88;6.57;;;;;;;29.07;35.80;100740.53;5038339;28;20026;-61
2022/05/13 10:34:28;;;;;;;6.70;6.40;;;;;;;28.95;35.95;100736.63;5036719;28;20075;-62
2022/05/13 10:37:33;;;;;;;7.10;6.80;;;;;;;29.31;35.24;100729.56;5025397;28;20026;-61
2022/05/13 10:40:10;;;;;;;6.60;6.30;;;;;;;29.16;36.32;100722.41;5026369;28;20285;-62
2022/05/13 10:42:41;;;;;;;6.78;6.47;;;;;;;28.98;36.61;100725.91;5030330;28;20049;-62
2022/05/13 10:45:25;;;;;;;6.70;6.40;;;;;;;29.71;35.09;100717.22;5031241;28;20033;-60
2022/05/13 10:48:03;;;;;;;7.10;6.80;;;;;;;29.46;36.18;100714.88;5031969;28;20587;-63
2022/05/13 10:50:35;;;;;;;6.70;6.40;;;;;;;29.56;36.06;100705.72;5031836;28;20033;-62
2022/05/13 10:53:35;;;;;;;6.70;6.40;;;;;;;28.98;36.31;100705.97;5032068;28;20100;-64
2022/05/13 10:56:17;;;;;;;6.60;6.30;;;;;;;29.28;35.60;100711.00;5010409;28;20045;-62
2022/05/13 10:59:10;;;;;;;6.70;6.40;;;;;;;29.14;36.03;100696.47;5031758;28;20026;-62
2022/05/13 11:01:48;;;;;;;6.80;6.50;;;;;;;29.30;36.52;100683.38;5031935;28;20029;-62
2022/05/13 11:04:15;;;;;;;6.68;6.38;;;;;;;29.80;35.46;100683.72;5032211;28;20029;-61
2022/05/13 11:07:09;;;;;;;6.47;6.18;;;;;;;30.07;34.53;100685.72;5032235;28;20029;-60
2022/05/13 11:09:46;;;;;;;6.80;6.50;;;;;;;29.58;35.37;100673.44;5020141;28;20036;-61
2022/05/13 11:12:43;;;;;;;6.60;6.30;;;;;;;29.13;35.58;100672.97;5021994;28;20079;-63
2022/05/13 11:15:18;;;;;;;6.78;6.47;;;;;;;29.27;35.63;100670.34;5031306;28;20389;-62
2022/05/13 11:18:08;;;;;;;6.57;6.28;;;;;;;28.96;36.52;100667.22;5029912;28;20489;-62
2022/05/13 11:20:57;;;;;;;6.60;6.30;;;;;;;29.23;35.88;100661.91;5031570;28;20033;-61
2022/05/13 11:23:34;;;;;;;6.65;6.35;;;;;;;29.30;35.60;100656.06;5032030;28;20087;-61
2022/05/13 11:26:05;;;;;;;6.47;6.18;;;;;;;29.52;35.26;100653.56;5031623;28;20504;-62
2022/05/13 11:28:49;;;;;;;6.53;6.22;;;;;;;29.33;35.22;100653.56;5031648;28;20029;-62
2022/05/13 11:31:41;;;;;;;6.30;6.00;;;;;;;29.33;34.78;100647.28;5031631;28;20134;-60
2022/05/13 11:34:40;;;;;;;6.43;6.13;;;;;;;29.77;34.07;100646.88;5031607;28;20025;-63
2022/05/13 11:37:10;;;;;;;6.55;6.25;;;;;;;30.04;34.60;100637.06;5027137;28;20045;-62
2022/05/13 11:39:38;;;;;;;6.47;6.18;;;;;;;29.98;33.74;100628.16;5031699;28;20104;-62
2022/05/13 11:42:13;;;;;;;6.60;6.30;;;;;;;29.95;34.34;100623.28;5036783;28;20037;-62
2022/05/13 11:45:01;;;;;;;6.55;6.25;;;;;;;29.71;34.49;100624.25;5017766;28;20038;-62
2022/05/13 11:47:35;;;;;;;5.95;5.75;;;;;;;29.66;34.35;100613.41;5025946;28;20021;-61
2022/05/13 11:50:01;;;;;;;6.68;6.38;;;;;;;29.23;35.14;100611.91;5028297;28;20468;-62
2022/05/13 11:52:34;;;;;;;6.53;6.22;;;;;;;30.07;34.18;100601.72;5031543;28;20033;-62
2022/05/13 11:55:17;;;;;;;6.60;6.30;;;;;;;29.57;34.95;100596.06;5032333;28;20048;-61
2022/05/13 11:57:55;;;;;;;6.47;6.18;;;;;;;29.64;34.93;100590.22;5031812;28;20039;-63
2022/05/13 12:00:38;;;;;;;6.50;6.20;;;;;;;30.13;33.61;100583.31;5019219;28;20159;-61
2022/05/13 12:03:13;;;;;;;6.50;6.20;;;;;;;29.67;34.29;100584.13;5028963;28;20044;-62
2022/05/13 12:05:50;;;;;;;6.78;6.47;;;;;;;29.90;33.28;100577.72;5021616;28;20112;-61
2022/05/13 12:08:23;;;;;;;6.60;6.30;;;;;;;30.39;32.12;100565.25;5034203;28;20496;-61
2022/05/13 12:11:01;;;;;;;6.80;6.50;;;;;;;30.37;32.23;100562.00;5028687;28;20081;-62
2022/05/13 12:13:55;;;;;;;6.70;6.40;;;;;;;29.02;34.22;100557.59;5028677;28;20168;-61